sensor_id;sensor_type;location;lat;lon;timestamp;P1;durP1;ratioP1;P2;durP2;ratioP2
70342;SDS011;57767;42.068;24.752;2023-04-25T00:00:38;4.75;;;3.72;;
70342;SDS011;57767;42.068;24.752;2023-04-25T00:01:40;4.68;;;3.95;;
70342;SDS011;57767;42.068;24.752;2023-04-25T00:02:42;4.80;;;3.72;;
70342;SDS011;57767;42.068;24.752;2023-04-25T00:03:44;5.70;;;4.05;;
70342;SDS011;57767;42.068;24.752;2023-04-25T00:04:47;4.68;;;4.18;;
70342;SDS011;57767;42.068;24.752;2023-04-25T00:05:50;4.47;;;4.00;;
70342;SDS011;57767;42.068;24.752;2023-04-25T00:06:53;4.88;;;4.13;;
70342;SDS011;57767;42.068;24.752;2023-04-25T00:07:55;5.07;;;4.10;;
70342;SDS011;57767;42.068;24.752;2023-04-25T00:08:58;4.20;;;3.80;;
70342;SDS011;57767;42.068;24.752;2023-04-25T00:10:00;4.35;;;3.90;;
70342;SDS011;57767;42.068;24.752;2023-04-25T00:11:02;4.90;;;4.40;;
70342;SDS011;57767;42.068;24.752;2023-04-25T00:12:04;4.38;;;3.95;;
70342;SDS011;57767;42.068;24.752;2023-04-25T00:13:06;4.15;;;3.75;;
70342;SDS011;57767;42.068;24.752;2023-04-25T00:14:09;4.25;;;3.70;;
70342;SDS011;57767;42.068;24.752;2023-04-25T00:15:11;4.20;;;3.80;;
70342;SDS011;57767;42.068;24.752;2023-04-25T00:16:13;4.18;;;3.55;;
70342;SDS011;57767;42.068;24.752;2023-04-25T00:17:16;3.83;;;3.17;;
70342;SDS011;57767;42.068;24.752;2023-04-25T00:18:19;6.68;;;3.63;;
70342;SDS011;57767;42.068;24.752;2023-04-25T00:19:21;3.95;;;3.55;;
70342;SDS011;57767;42.068;24.752;2023-04-25T00:20:23;3.97;;;3.35;;
70342;SDS011;57767;42.068;24.752;2023-04-25T00:21:26;3.60;;;3.10;;
70342;SDS011;57767;42.068;24.752;2023-04-25T00:22:27;3.95;;;3.38;;
70342;SDS011;57767;42.068;24.752;2023-04-25T00:23:29;4.47;;;3.65;;
70342;SDS011;57767;42.068;24.752;2023-04-25T00:24:31;3.67;;;3.10;;
70342;SDS011;57767;42.068;24.752;2023-04-25T00:25:33;3.42;;;3.08;;
70342;SDS011;57767;42.068;24.752;2023-04-25T00:26:34;3.95;;;3.03;;
70342;SDS011;57767;42.068;24.752;2023-04-25T00:27:37;3.88;;;3.42;;
70342;SDS011;57767;42.068;24.752;2023-04-25T00:28:40;8.50;;;3.30;;
70342;SDS011;57767;42.068;24.752;2023-04-25T00:29:42;4.68;;;3.60;;
70342;SDS011;57767;42.068;24.752;2023-04-25T00:30:44;3.88;;;3.40;;
70342;SDS011;57767;42.068;24.752;2023-04-25T00:31:45;3.88;;;3.50;;
70342;SDS011;57767;42.068;24.752;2023-04-25T00:32:47;3.63;;;3.28;;
70342;SDS011;57767;42.068;24.752;2023-04-25T00:33:50;3.20;;;2.90;;
70342;SDS011;57767;42.068;24.752;2023-04-25T00:34:52;3.53;;;3.10;;
70342;SDS011;57767;42.068;24.752;2023-04-25T00:35:54;3.40;;;2.55;;
70342;SDS011;57767;42.068;24.752;2023-04-25T00:36:56;3.22;;;2.92;;
70342;SDS011;57767;42.068;24.752;2023-04-25T00:37:59;5.15;;;3.08;;
70342;SDS011;57767;42.068;24.752;2023-04-25T00:39:01;4.53;;;3.28;;
70342;SDS011;57767;42.068;24.752;2023-04-25T00:40:04;6.63;;;3.47;;
70342;SDS011;57767;42.068;24.752;2023-04-25T00:41:07;4.60;;;3.38;;
70342;SDS011;57767;42.068;24.752;2023-04-25T00:42:09;4.45;;;3.00;;
70342;SDS011;57767;42.068;24.752;2023-04-25T00:43:11;12.32;;;3.08;;
70342;SDS011;57767;42.068;24.752;2023-04-25T00:44:13;4.55;;;2.90;;
70342;SDS011;57767;42.068;24.752;2023-04-25T00:45:18;5.47;;;3.92;;
70342;SDS011;57767;42.068;24.752;2023-04-25T00:46:20;3.17;;;2.88;;
70342;SDS011;57767;42.068;24.752;2023-04-25T00:47:22;4.43;;;3.95;;
70342;SDS011;57767;42.068;24.752;2023-04-25T00:48:25;5.18;;;3.63;;
70342;SDS011;57767;42.068;24.752;2023-04-25T00:49:26;4.30;;;3.90;;
70342;SDS011;57767;42.068;24.752;2023-04-25T00:50:28;7.10;;;3.22;;
70342;SDS011;57767;42.068;24.752;2023-04-25T00:51:31;3.95;;;3.55;;
70342;SDS011;57767;42.068;24.752;2023-04-25T00:52:34;6.90;;;4.07;;
70342;SDS011;57767;42.068;24.752;2023-04-25T00:53:36;4.40;;;3.47;;
70342;SDS011;57767;42.068;24.752;2023-04-25T00:54:38;4.38;;;3.83;;
70342;SDS011;57767;42.068;24.752;2023-04-25T00:55:40;5.65;;;4.15;;
70342;SDS011;57767;42.068;24.752;2023-04-25T00:56:41;5.15;;;4.43;;
70342;SDS011;57767;42.068;24.752;2023-04-25T00:57:43;7.50;;;3.58;;
70342;SDS011;57767;42.068;24.752;2023-04-25T00:58:45;7.38;;;4.05;;
70342;SDS011;57767;42.068;24.752;2023-04-25T00:59:47;6.15;;;4.65;;
70342;SDS011;57767;42.068;24.752;2023-04-25T01:00:52;5.55;;;4.72;;
70342;SDS011;57767;42.068;24.752;2023-04-25T01:01:54;5.32;;;4.40;;
70342;SDS011;57767;42.068;24.752;2023-04-25T01:02:56;5.63;;;5.07;;
70342;SDS011;57767;42.068;24.752;2023-04-25T01:03:58;6.05;;;5.18;;
70342;SDS011;57767;42.068;24.752;2023-04-25T01:05:02;5.00;;;4.45;;
70342;SDS011;57767;42.068;24.752;2023-04-25T01:06:05;5.65;;;4.75;;
70342;SDS011;57767;42.068;24.752;2023-04-25T01:07:09;6.25;;;5.00;;
70342;SDS011;57767;42.068;24.752;2023-04-25T01:08:11;5.47;;;4.78;;
70342;SDS011;57767;42.068;24.752;2023-04-25T01:09:14;5.68;;;4.80;;
70342;SDS011;57767;42.068;24.752;2023-04-25T01:10:16;5.25;;;4.43;;
70342;SDS011;57767;42.068;24.752;2023-04-25T01:11:17;5.90;;;4.78;;
70342;SDS011;57767;42.068;24.752;2023-04-25T01:12:19;8.10;;;5.30;;
70342;SDS011;57767;42.068;24.752;2023-04-25T01:13:24;7.43;;;5.60;;
70342;SDS011;57767;42.068;24.752;2023-04-25T01:14:26;4.95;;;4.25;;
70342;SDS011;57767;42.068;24.752;2023-04-25T01:15:28;9.25;;;4.70;;
70342;SDS011;57767;42.068;24.752;2023-04-25T01:16:29;5.80;;;4.13;;
70342;SDS011;57767;42.068;24.752;2023-04-25T01:17:31;5.45;;;4.75;;
70342;SDS011;57767;42.068;24.752;2023-04-25T01:18:36;6.10;;;5.07;;
70342;SDS011;57767;42.068;24.752;2023-04-25T01:19:40;5.72;;;4.72;;
70342;SDS011;57767;42.068;24.752;2023-04-25T01:20:42;6.13;;;5.00;;
70342;SDS011;57767;42.068;24.752;2023-04-25T01:21:44;8.23;;;5.50;;
70342;SDS011;57767;42.068;24.752;2023-04-25T01:22:47;7.45;;;4.70;;
70342;SDS011;57767;42.068;24.752;2023-04-25T01:23:49;7.25;;;6.03;;
70342;SDS011;57767;42.068;24.752;2023-04-25T01:24:51;6.10;;;5.22;;
70342;SDS011;57767;42.068;24.752;2023-04-25T01:25:54;7.70;;;5.68;;
70342;SDS011;57767;42.068;24.752;2023-04-25T01:26:56;8.30;;;6.13;;
70342;SDS011;57767;42.068;24.752;2023-04-25T01:27:58;8.50;;;5.50;;
70342;SDS011;57767;42.068;24.752;2023-04-25T01:29:01;9.27;;;5.93;;
70342;SDS011;57767;42.068;24.752;2023-04-25T01:30:03;7.25;;;5.43;;
70342;SDS011;57767;42.068;24.752;2023-04-25T01:31:05;9.00;;;6.10;;
70342;SDS011;57767;42.068;24.752;2023-04-25T01:32:07;8.25;;;6.72;;
70342;SDS011;57767;42.068;24.752;2023-04-25T01:33:10;8.07;;;5.57;;
70342;SDS011;57767;42.068;24.752;2023-04-25T01:34:15;9.88;;;6.78;;
70342;SDS011;57767;42.068;24.752;2023-04-25T01:35:17;10.40;;;8.90;;
70342;SDS011;57767;42.068;24.752;2023-04-25T01:36:18;11.00;;;7.72;;
70342;SDS011;57767;42.068;24.752;2023-04-25T01:37:21;11.43;;;7.65;;
70342;SDS011;57767;42.068;24.752;2023-04-25T01:38:23;12.98;;;8.38;;
70342;SDS011;57767;42.068;24.752;2023-04-25T01:39:25;9.77;;;8.00;;
70342;SDS011;57767;42.068;24.752;2023-04-25T01:40:27;10.32;;;8.00;;
70342;SDS011;57767;42.068;24.752;2023-04-25T01:41:29;9.40;;;7.70;;
70342;SDS011;57767;42.068;24.752;2023-04-25T01:42:32;10.48;;;8.18;;
70342;SDS011;57767;42.068;24.752;2023-04-25T01:43:34;10.73;;;8.18;;
70342;SDS011;57767;42.068;24.752;2023-04-25T01:44:36;10.38;;;9.25;;
70342;SDS011;57767;42.068;24.752;2023-04-25T01:45:38;9.57;;;7.90;;
70342;SDS011;57767;42.068;24.752;2023-04-25T01:46:43;11.75;;;7.43;;
70342;SDS011;57767;42.068;24.752;2023-04-25T01:47:45;8.07;;;7.25;;
70342;SDS011;57767;42.068;24.752;2023-04-25T01:48:50;7.03;;;6.32;;
70342;SDS011;57767;42.068;24.752;2023-04-25T01:49:52;7.00;;;5.43;;
70342;SDS011;57767;42.068;24.752;2023-04-25T01:50:54;9.75;;;7.35;;
70342;SDS011;57767;42.068;24.752;2023-04-25T01:51:55;10.15;;;8.27;;
70342;SDS011;57767;42.068;24.752;2023-04-25T01:52:57;10.52;;;7.38;;
70342;SDS011;57767;42.068;24.752;2023-04-25T01:53:59;8.75;;;7.22;;
70342;SDS011;57767;42.068;24.752;2023-04-25T01:55:02;8.70;;;7.10;;
70342;SDS011;57767;42.068;24.752;2023-04-25T01:56:04;9.77;;;8.45;;
70342;SDS011;57767;42.068;24.752;2023-04-25T01:57:06;9.95;;;8.60;;
70342;SDS011;57767;42.068;24.752;2023-04-25T01:58:08;13.75;;;9.30;;
70342;SDS011;57767;42.068;24.752;2023-04-25T01:59:11;10.43;;;8.85;;
70342;SDS011;57767;42.068;24.752;2023-04-25T02:00:12;10.40;;;9.35;;
70342;SDS011;57767;42.068;24.752;2023-04-25T02:01:14;11.98;;;10.50;;
70342;SDS011;57767;42.068;24.752;2023-04-25T02:02:16;11.70;;;10.50;;
70342;SDS011;57767;42.068;24.752;2023-04-25T02:03:18;10.50;;;8.60;;
70342;SDS011;57767;42.068;24.752;2023-04-25T02:04:20;13.02;;;10.50;;
70342;SDS011;57767;42.068;24.752;2023-04-25T02:05:22;12.38;;;10.00;;
70342;SDS011;57767;42.068;24.752;2023-04-25T02:06:24;12.00;;;9.70;;
70342;SDS011;57767;42.068;24.752;2023-04-25T02:07:26;11.18;;;9.88;;
70342;SDS011;57767;42.068;24.752;2023-04-25T02:08:28;14.65;;;11.90;;
70342;SDS011;57767;42.068;24.752;2023-04-25T02:09:29;13.77;;;11.25;;
70342;SDS011;57767;42.068;24.752;2023-04-25T02:10:31;13.48;;;10.73;;
70342;SDS011;57767;42.068;24.752;2023-04-25T02:11:33;16.02;;;11.80;;
70342;SDS011;57767;42.068;24.752;2023-04-25T02:12:35;13.57;;;11.75;;
70342;SDS011;57767;42.068;24.752;2023-04-25T02:13:37;13.27;;;11.88;;
70342;SDS011;57767;42.068;24.752;2023-04-25T02:14:39;13.18;;;10.40;;
70342;SDS011;57767;42.068;24.752;2023-04-25T02:15:41;15.45;;;12.20;;
70342;SDS011;57767;42.068;24.752;2023-04-25T02:16:43;14.77;;;11.95;;
70342;SDS011;57767;42.068;24.752;2023-04-25T02:17:47;13.90;;;11.35;;
70342;SDS011;57767;42.068;24.752;2023-04-25T02:18:50;14.55;;;11.88;;
70342;SDS011;57767;42.068;24.752;2023-04-25T02:19:54;16.08;;;12.10;;
70342;SDS011;57767;42.068;24.752;2023-04-25T02:20:55;14.45;;;10.57;;
70342;SDS011;57767;42.068;24.752;2023-04-25T02:21:57;13.70;;;11.57;;
70342;SDS011;57767;42.068;24.752;2023-04-25T02:22:59;15.77;;;12.75;;
70342;SDS011;57767;42.068;24.752;2023-04-25T02:24:01;15.43;;;12.10;;
70342;SDS011;57767;42.068;24.752;2023-04-25T02:25:04;16.10;;;11.73;;
70342;SDS011;57767;42.068;24.752;2023-04-25T02:26:06;15.57;;;10.52;;
70342;SDS011;57767;42.068;24.752;2023-04-25T02:27:08;15.02;;;11.23;;
70342;SDS011;57767;42.068;24.752;2023-04-25T02:28:10;14.27;;;10.93;;
70342;SDS011;57767;42.068;24.752;2023-04-25T02:29:12;13.75;;;10.70;;
70342;SDS011;57767;42.068;24.752;2023-04-25T02:30:16;16.73;;;10.15;;
70342;SDS011;57767;42.068;24.752;2023-04-25T02:31:18;14.88;;;10.35;;
70342;SDS011;57767;42.068;24.752;2023-04-25T02:32:20;16.40;;;11.60;;
70342;SDS011;57767;42.068;24.752;2023-04-25T02:33:22;16.08;;;11.55;;
70342;SDS011;57767;42.068;24.752;2023-04-25T02:34:23;15.88;;;11.18;;
70342;SDS011;57767;42.068;24.752;2023-04-25T02:35:25;19.65;;;14.50;;
70342;SDS011;57767;42.068;24.752;2023-04-25T02:36:27;18.77;;;11.27;;
70342;SDS011;57767;42.068;24.752;2023-04-25T02:37:32;16.85;;;12.38;;
70342;SDS011;57767;42.068;24.752;2023-04-25T02:38:35;17.33;;;12.45;;
70342;SDS011;57767;42.068;24.752;2023-04-25T02:39:37;20.55;;;15.55;;
70342;SDS011;57767;42.068;24.752;2023-04-25T02:40:39;20.05;;;13.38;;
70342;SDS011;57767;42.068;24.752;2023-04-25T02:41:41;20.50;;;13.18;;
70342;SDS011;57767;42.068;24.752;2023-04-25T02:42:43;19.92;;;12.65;;
70342;SDS011;57767;42.068;24.752;2023-04-25T02:43:47;22.42;;;14.00;;
70342;SDS011;57767;42.068;24.752;2023-04-25T02:44:49;22.73;;;15.20;;
70342;SDS011;57767;42.068;24.752;2023-04-25T02:45:51;22.42;;;15.07;;
70342;SDS011;57767;42.068;24.752;2023-04-25T02:46:52;21.48;;;13.90;;
70342;SDS011;57767;42.068;24.752;2023-04-25T02:47:54;23.88;;;13.05;;
70342;SDS011;57767;42.068;24.752;2023-04-25T02:48:56;20.02;;;13.07;;
70342;SDS011;57767;42.068;24.752;2023-04-25T02:49:58;21.42;;;14.13;;
70342;SDS011;57767;42.068;24.752;2023-04-25T02:51:00;21.52;;;13.80;;
70342;SDS011;57767;42.068;24.752;2023-04-25T02:52:01;20.77;;;14.27;;
70342;SDS011;57767;42.068;24.752;2023-04-25T02:53:03;21.40;;;13.65;;
70342;SDS011;57767;42.068;24.752;2023-04-25T02:54:05;22.08;;;14.55;;
70342;SDS011;57767;42.068;24.752;2023-04-25T02:55:07;18.60;;;13.10;;
70342;SDS011;57767;42.068;24.752;2023-04-25T02:56:10;20.92;;;15.27;;
70342;SDS011;57767;42.068;24.752;2023-04-25T02:57:11;20.58;;;13.95;;
70342;SDS011;57767;42.068;24.752;2023-04-25T02:58:13;20.65;;;14.65;;
70342;SDS011;57767;42.068;24.752;2023-04-25T02:59:16;22.10;;;15.68;;
70342;SDS011;57767;42.068;24.752;2023-04-25T03:00:18;23.48;;;15.63;;
70342;SDS011;57767;42.068;24.752;2023-04-25T03:01:20;24.42;;;15.13;;
70342;SDS011;57767;42.068;24.752;2023-04-25T03:02:22;23.10;;;15.25;;
70342;SDS011;57767;42.068;24.752;2023-04-25T03:03:24;25.35;;;14.15;;
70342;SDS011;57767;42.068;24.752;2023-04-25T03:04:26;21.27;;;14.68;;
70342;SDS011;57767;42.068;24.752;2023-04-25T03:05:28;23.20;;;15.48;;
70342;SDS011;57767;42.068;24.752;2023-04-25T03:06:30;23.10;;;15.50;;
70342;SDS011;57767;42.068;24.752;2023-04-25T03:07:32;24.73;;;15.88;;
70342;SDS011;57767;42.068;24.752;2023-04-25T03:08:33;24.42;;;15.48;;
70342;SDS011;57767;42.068;24.752;2023-04-25T03:09:35;23.20;;;16.02;;
70342;SDS011;57767;42.068;24.752;2023-04-25T03:10:38;22.95;;;13.98;;
70342;SDS011;57767;42.068;24.752;2023-04-25T03:11:39;22.15;;;13.95;;
70342;SDS011;57767;42.068;24.752;2023-04-25T03:12:41;22.90;;;15.18;;
70342;SDS011;57767;42.068;24.752;2023-04-25T03:13:43;21.25;;;12.93;;
70342;SDS011;57767;42.068;24.752;2023-04-25T03:14:45;21.38;;;14.32;;
70342;SDS011;57767;42.068;24.752;2023-04-25T03:15:46;22.23;;;15.02;;
70342;SDS011;57767;42.068;24.752;2023-04-25T03:16:48;21.48;;;13.90;;
70342;SDS011;57767;42.068;24.752;2023-04-25T03:17:50;19.45;;;12.40;;
70342;SDS011;57767;42.068;24.752;2023-04-25T03:18:52;18.85;;;12.10;;
70342;SDS011;57767;42.068;24.752;2023-04-25T03:19:54;20.00;;;12.23;;
70342;SDS011;57767;42.068;24.752;2023-04-25T03:20:56;21.00;;;12.82;;
70342;SDS011;57767;42.068;24.752;2023-04-25T03:21:58;20.05;;;12.52;;
70342;SDS011;57767;42.068;24.752;2023-04-25T03:23:00;19.88;;;12.60;;
70342;SDS011;57767;42.068;24.752;2023-04-25T03:24:02;17.40;;;11.88;;
70342;SDS011;57767;42.068;24.752;2023-04-25T03:25:05;18.92;;;11.70;;
70342;SDS011;57767;42.068;24.752;2023-04-25T03:26:08;14.73;;;10.45;;
70342;SDS011;57767;42.068;24.752;2023-04-25T03:27:09;16.60;;;11.45;;
70342;SDS011;57767;42.068;24.752;2023-04-25T03:28:11;16.42;;;11.98;;
70342;SDS011;57767;42.068;24.752;2023-04-25T03:29:13;19.15;;;10.95;;
70342;SDS011;57767;42.068;24.752;2023-04-25T03:30:15;18.33;;;11.90;;
70342;SDS011;57767;42.068;24.752;2023-04-25T03:31:17;15.45;;;9.20;;
70342;SDS011;57767;42.068;24.752;2023-04-25T03:32:18;13.38;;;9.15;;
70342;SDS011;57767;42.068;24.752;2023-04-25T03:33:20;14.02;;;9.27;;
70342;SDS011;57767;42.068;24.752;2023-04-25T03:34:23;11.25;;;8.50;;
70342;SDS011;57767;42.068;24.752;2023-04-25T03:35:25;13.27;;;10.07;;
70342;SDS011;57767;42.068;24.752;2023-04-25T03:36:27;13.82;;;9.18;;
70342;SDS011;57767;42.068;24.752;2023-04-25T03:37:28;14.05;;;8.95;;
70342;SDS011;57767;42.068;24.752;2023-04-25T03:38:30;13.52;;;9.02;;
70342;SDS011;57767;42.068;24.752;2023-04-25T03:39:32;15.48;;;9.85;;
70342;SDS011;57767;42.068;24.752;2023-04-25T03:40:34;13.45;;;10.05;;
70342;SDS011;57767;42.068;24.752;2023-04-25T03:41:36;17.75;;;11.50;;
70342;SDS011;57767;42.068;24.752;2023-04-25T03:42:37;20.77;;;13.45;;
70342;SDS011;57767;42.068;24.752;2023-04-25T03:43:39;16.33;;;12.77;;
70342;SDS011;57767;42.068;24.752;2023-04-25T03:44:41;20.60;;;13.30;;
70342;SDS011;57767;42.068;24.752;2023-04-25T03:45:42;15.98;;;10.50;;
70342;SDS011;57767;42.068;24.752;2023-04-25T03:46:44;17.92;;;10.43;;
70342;SDS011;57767;42.068;24.752;2023-04-25T03:47:46;12.88;;;9.98;;
70342;SDS011;57767;42.068;24.752;2023-04-25T03:48:48;11.18;;;7.68;;
70342;SDS011;57767;42.068;24.752;2023-04-25T03:49:50;8.15;;;6.63;;
70342;SDS011;57767;42.068;24.752;2023-04-25T03:50:53;8.20;;;6.00;;
70342;SDS011;57767;42.068;24.752;2023-04-25T03:51:55;8.60;;;6.38;;
70342;SDS011;57767;42.068;24.752;2023-04-25T03:52:57;8.77;;;6.10;;
70342;SDS011;57767;42.068;24.752;2023-04-25T03:53:59;7.13;;;5.55;;
70342;SDS011;57767;42.068;24.752;2023-04-25T03:55:01;7.97;;;5.78;;
70342;SDS011;57767;42.068;24.752;2023-04-25T03:56:02;8.15;;;5.43;;
70342;SDS011;57767;42.068;24.752;2023-04-25T03:57:04;6.47;;;4.72;;
70342;SDS011;57767;42.068;24.752;2023-04-25T03:58:06;5.43;;;4.40;;
70342;SDS011;57767;42.068;24.752;2023-04-25T03:59:09;5.57;;;4.38;;
70342;SDS011;57767;42.068;24.752;2023-04-25T04:00:11;6.15;;;3.70;;
70342;SDS011;57767;42.068;24.752;2023-04-25T04:01:13;4.90;;;3.42;;
70342;SDS011;57767;42.068;24.752;2023-04-25T04:02:15;4.00;;;3.60;;
70342;SDS011;57767;42.068;24.752;2023-04-25T04:03:17;3.45;;;3.15;;
70342;SDS011;57767;42.068;24.752;2023-04-25T04:04:19;4.22;;;3.00;;
70342;SDS011;57767;42.068;24.752;2023-04-25T04:05:21;5.28;;;3.40;;
70342;SDS011;57767;42.068;24.752;2023-04-25T04:06:23;3.67;;;3.35;;
70342;SDS011;57767;42.068;24.752;2023-04-25T04:07:25;4.07;;;3.40;;
70342;SDS011;57767;42.068;24.752;2023-04-25T04:08:27;5.53;;;3.80;;
70342;SDS011;57767;42.068;24.752;2023-04-25T04:09:29;4.70;;;3.42;;
70342;SDS011;57767;42.068;24.752;2023-04-25T04:10:30;3.67;;;3.20;;
70342;SDS011;57767;42.068;24.752;2023-04-25T04:11:32;4.20;;;3.45;;
70342;SDS011;57767;42.068;24.752;2023-04-25T04:12:34;5.13;;;3.58;;
70342;SDS011;57767;42.068;24.752;2023-04-25T04:13:36;5.35;;;4.00;;
70342;SDS011;57767;42.068;24.752;2023-04-25T04:14:37;4.72;;;3.92;;
70342;SDS011;57767;42.068;24.752;2023-04-25T04:15:39;4.72;;;3.53;;
70342;SDS011;57767;42.068;24.752;2023-04-25T04:16:41;4.65;;;3.63;;
70342;SDS011;57767;42.068;24.752;2023-04-25T04:17:43;5.53;;;3.65;;
70342;SDS011;57767;42.068;24.752;2023-04-25T04:18:45;5.82;;;4.15;;
70342;SDS011;57767;42.068;24.752;2023-04-25T04:19:47;5.53;;;3.88;;
70342;SDS011;57767;42.068;24.752;2023-04-25T04:20:49;5.35;;;3.95;;
70342;SDS011;57767;42.068;24.752;2023-04-25T04:21:51;4.45;;;4.05;;
70342;SDS011;57767;42.068;24.752;2023-04-25T04:22:52;4.90;;;4.10;;
70342;SDS011;57767;42.068;24.752;2023-04-25T04:23:54;5.00;;;3.88;;
70342;SDS011;57767;42.068;24.752;2023-04-25T04:24:56;6.00;;;3.97;;
70342;SDS011;57767;42.068;24.752;2023-04-25T04:25:58;4.20;;;3.75;;
70342;SDS011;57767;42.068;24.752;2023-04-25T04:26:59;4.32;;;3.90;;
70342;SDS011;57767;42.068;24.752;2023-04-25T04:28:01;4.72;;;4.28;;
70342;SDS011;57767;42.068;24.752;2023-04-25T04:29:03;4.32;;;3.92;;
70342;SDS011;57767;42.068;24.752;2023-04-25T04:30:05;10.10;;;4.28;;
70342;SDS011;57767;42.068;24.752;2023-04-25T04:31:07;4.40;;;3.83;;
70342;SDS011;57767;42.068;24.752;2023-04-25T04:32:10;4.38;;;3.97;;
70342;SDS011;57767;42.068;24.752;2023-04-25T04:33:13;4.53;;;4.13;;
70342;SDS011;57767;42.068;24.752;2023-04-25T04:34:16;4.43;;;3.88;;
70342;SDS011;57767;42.068;24.752;2023-04-25T04:35:19;3.90;;;3.50;;
70342;SDS011;57767;42.068;24.752;2023-04-25T04:36:21;5.05;;;3.97;;
70342;SDS011;57767;42.068;24.752;2023-04-25T04:37:24;5.68;;;3.70;;
70342;SDS011;57767;42.068;24.752;2023-04-25T04:38:26;5.70;;;3.90;;
70342;SDS011;57767;42.068;24.752;2023-04-25T04:39:27;5.07;;;4.55;;
70342;SDS011;57767;42.068;24.752;2023-04-25T04:40:30;5.78;;;4.85;;
70342;SDS011;57767;42.068;24.752;2023-04-25T04:41:32;9.27;;;4.15;;
70342;SDS011;57767;42.068;24.752;2023-04-25T04:42:34;7.00;;;5.20;;
70342;SDS011;57767;42.068;24.752;2023-04-25T04:43:37;11.98;;;5.10;;
70342;SDS011;57767;42.068;24.752;2023-04-25T04:44:40;11.40;;;5.13;;
70342;SDS011;57767;42.068;24.752;2023-04-25T04:45:42;10.98;;;6.82;;
70342;SDS011;57767;42.068;24.752;2023-04-25T04:46:44;18.00;;;8.90;;
70342;SDS011;57767;42.068;24.752;2023-04-25T04:47:46;28.70;;;15.25;;
70342;SDS011;57767;42.068;24.752;2023-04-25T04:48:50;11.18;;;6.47;;
70342;SDS011;57767;42.068;24.752;2023-04-25T04:49:51;12.45;;;6.45;;
70342;SDS011;57767;42.068;24.752;2023-04-25T04:50:58;8.05;;;5.40;;
70342;SDS011;57767;42.068;24.752;2023-04-25T04:52:00;7.22;;;5.97;;
70342;SDS011;57767;42.068;24.752;2023-04-25T04:53:02;7.65;;;4.75;;
70342;SDS011;57767;42.068;24.752;2023-04-25T04:54:05;7.22;;;5.95;;
70342;SDS011;57767;42.068;24.752;2023-04-25T04:55:07;7.38;;;5.90;;
70342;SDS011;57767;42.068;24.752;2023-04-25T04:56:09;7.53;;;5.20;;
70342;SDS011;57767;42.068;24.752;2023-04-25T04:57:11;7.18;;;5.85;;
70342;SDS011;57767;42.068;24.752;2023-04-25T04:58:13;7.75;;;6.60;;
70342;SDS011;57767;42.068;24.752;2023-04-25T04:59:16;9.55;;;7.05;;
70342;SDS011;57767;42.068;24.752;2023-04-25T05:00:18;9.05;;;7.25;;
70342;SDS011;57767;42.068;24.752;2023-04-25T05:01:20;9.20;;;7.15;;
70342;SDS011;57767;42.068;24.752;2023-04-25T05:02:24;10.18;;;8.25;;
70342;SDS011;57767;42.068;24.752;2023-04-25T05:03:26;10.27;;;8.00;;
70342;SDS011;57767;42.068;24.752;2023-04-25T05:04:28;13.75;;;8.32;;
70342;SDS011;57767;42.068;24.752;2023-04-25T05:05:30;12.60;;;8.52;;
70342;SDS011;57767;42.068;24.752;2023-04-25T05:06:32;13.40;;;8.50;;
70342;SDS011;57767;42.068;24.752;2023-04-25T05:07:34;13.25;;;8.40;;
70342;SDS011;57767;42.068;24.752;2023-04-25T05:08:36;10.27;;;8.00;;
70342;SDS011;57767;42.068;24.752;2023-04-25T05:09:38;13.90;;;9.05;;
70342;SDS011;57767;42.068;24.752;2023-04-25T05:10:39;14.77;;;8.57;;
70342;SDS011;57767;42.068;24.752;2023-04-25T05:11:41;11.95;;;8.38;;
70342;SDS011;57767;42.068;24.752;2023-04-25T05:12:43;10.98;;;8.13;;
70342;SDS011;57767;42.068;24.752;2023-04-25T05:13:45;10.90;;;8.57;;
70342;SDS011;57767;42.068;24.752;2023-04-25T05:14:47;13.02;;;8.00;;
70342;SDS011;57767;42.068;24.752;2023-04-25T05:15:48;10.85;;;8.70;;
70342;SDS011;57767;42.068;24.752;2023-04-25T05:16:50;10.77;;;8.57;;
70342;SDS011;57767;42.068;24.752;2023-04-25T05:17:52;13.52;;;8.85;;
70342;SDS011;57767;42.068;24.752;2023-04-25T05:18:54;14.05;;;8.75;;
70342;SDS011;57767;42.068;24.752;2023-04-25T05:19:56;11.05;;;8.45;;
70342;SDS011;57767;42.068;24.752;2023-04-25T05:20:58;12.35;;;7.85;;
70342;SDS011;57767;42.068;24.752;2023-04-25T05:22:00;10.50;;;8.63;;
70342;SDS011;57767;42.068;24.752;2023-04-25T05:23:01;13.52;;;8.15;;
70342;SDS011;57767;42.068;24.752;2023-04-25T05:24:03;9.98;;;7.88;;
70342;SDS011;57767;42.068;24.752;2023-04-25T05:25:06;9.52;;;6.82;;
70342;SDS011;57767;42.068;24.752;2023-04-25T05:26:08;10.50;;;7.60;;
70342;SDS011;57767;42.068;24.752;2023-04-25T05:27:18;8.80;;;7.28;;
70342;SDS011;57767;42.068;24.752;2023-04-25T05:28:20;9.45;;;7.20;;
70342;SDS011;57767;42.068;24.752;2023-04-25T05:29:22;8.20;;;6.72;;
70342;SDS011;57767;42.068;24.752;2023-04-25T05:30:24;8.40;;;7.00;;
70342;SDS011;57767;42.068;24.752;2023-04-25T05:31:26;8.88;;;7.28;;
70342;SDS011;57767;42.068;24.752;2023-04-25T05:32:28;11.70;;;7.20;;
70342;SDS011;57767;42.068;24.752;2023-04-25T05:33:30;7.43;;;6.60;;
70342;SDS011;57767;42.068;24.752;2023-04-25T05:34:31;8.73;;;7.25;;
70342;SDS011;57767;42.068;24.752;2023-04-25T05:35:33;7.93;;;7.03;;
70342;SDS011;57767;42.068;24.752;2023-04-25T05:36:35;9.02;;;7.00;;
70342;SDS011;57767;42.068;24.752;2023-04-25T05:37:37;9.30;;;7.22;;
70342;SDS011;57767;42.068;24.752;2023-04-25T05:38:39;8.50;;;6.82;;
70342;SDS011;57767;42.068;24.752;2023-04-25T05:39:41;8.27;;;6.53;;
70342;SDS011;57767;42.068;24.752;2023-04-25T05:40:42;8.50;;;6.95;;
70342;SDS011;57767;42.068;24.752;2023-04-25T05:41:44;8.95;;;7.22;;
70342;SDS011;57767;42.068;24.752;2023-04-25T05:42:46;9.15;;;7.30;;
70342;SDS011;57767;42.068;24.752;2023-04-25T05:43:48;8.75;;;6.95;;
70342;SDS011;57767;42.068;24.752;2023-04-25T05:44:51;9.55;;;7.93;;
70342;SDS011;57767;42.068;24.752;2023-04-25T05:45:53;8.93;;;7.30;;
70342;SDS011;57767;42.068;24.752;2023-04-25T05:46:55;9.40;;;7.22;;
70342;SDS011;57767;42.068;24.752;2023-04-25T05:47:56;9.68;;;7.53;;
70342;SDS011;57767;42.068;24.752;2023-04-25T05:48:58;9.43;;;7.20;;
70342;SDS011;57767;42.068;24.752;2023-04-25T05:50:00;9.85;;;7.80;;
70342;SDS011;57767;42.068;24.752;2023-04-25T05:51:02;12.57;;;7.28;;
70342;SDS011;57767;42.068;24.752;2023-04-25T05:52:04;10.20;;;7.45;;
70342;SDS011;57767;42.068;24.752;2023-04-25T05:53:06;11.02;;;7.82;;
70342;SDS011;57767;42.068;24.752;2023-04-25T05:54:07;8.00;;;7.20;;
70342;SDS011;57767;42.068;24.752;2023-04-25T05:55:09;11.63;;;7.72;;
70342;SDS011;57767;42.068;24.752;2023-04-25T05:56:11;7.85;;;6.15;;
70342;SDS011;57767;42.068;24.752;2023-04-25T05:57:20;9.20;;;6.50;;
70342;SDS011;57767;42.068;24.752;2023-04-25T05:58:25;8.02;;;7.03;;
70342;SDS011;57767;42.068;24.752;2023-04-25T05:59:26;9.75;;;6.13;;
70342;SDS011;57767;42.068;24.752;2023-04-25T06:00:29;6.18;;;4.40;;
70342;SDS011;57767;42.068;24.752;2023-04-25T06:01:30;7.72;;;4.53;;
70342;SDS011;57767;42.068;24.752;2023-04-25T06:02:32;5.78;;;4.75;;
70342;SDS011;57767;42.068;24.752;2023-04-25T06:03:34;6.57;;;4.75;;
70342;SDS011;57767;42.068;24.752;2023-04-25T06:04:36;5.40;;;3.42;;
70342;SDS011;57767;42.068;24.752;2023-04-25T06:05:39;5.40;;;3.80;;